Time;durP1;ratioP1;P1;durP2;ratioP2;P2;SDS_P1;SDS_P2;PMS_P1;PMS_P2;Temp;Humidity;BMP_temperature;BMP_pressure;BME280_temperature;BME280_humidity;BME280_pressure;Samples;Min_cycle;Max_cycle;Signal;HPM_P1;HPM_P2
2021/03/07 00:01:51;;;;;;;7.50;5.23;;;;;;;0.28;55.76;99051.69;4944039;29;20241;-71
2021/03/07 00:04:17;;;;;;;8.83;5.67;;;;;;;0.31;55.89;99062.00;4945317;28;20237;-72
2021/03/07 00:06:44;;;;;;;7.87;5.43;;;;;;;0.30;56.42;99050.00;4944740;29;20835;-72
2021/03/07 00:09:10;;;;;;;9.77;6.10;;;;;;;0.31;56.14;99056.84;4945340;29;20226;-72
2021/03/07 00:11:37;;;;;;;7.53;5.20;;;;;;;0.30;55.84;99055.16;4944522;29;20237;-72
2021/03/07 00:14:03;;;;;;;9.10;5.63;;;;;;;0.27;55.97;99055.09;4944690;28;20739;-72
2021/03/07 00:16:29;;;;;;;7.80;5.20;;;;;;;0.23;55.88;99049.03;4944241;29;20249;-73
2021/03/07 00:18:55;;;;;;;10.87;5.40;;;;;;;0.14;56.33;99052.28;4945714;29;20225;-72
2021/03/07 00:21:21;;;;;;;8.63;5.30;;;;;;;0.06;56.21;99051.31;4944444;29;20241;-72
2021/03/07 00:23:47;;;;;;;8.33;5.10;;;;;;;0.05;56.49;99048.72;4944785;28;20777;-73
2021/03/07 00:26:13;;;;;;;6.80;5.13;;;;;;;0.07;56.27;99053.03;4943964;29;20237;-73
2021/03/07 00:28:40;;;;;;;7.73;5.00;;;;;;;0.06;56.26;99048.75;4945205;29;20222;-72
2021/03/07 00:31:06;;;;;;;10.10;5.80;;;;;;;0.03;56.30;99043.56;4943707;29;20267;-73
2021/03/07 00:33:32;;;;;;;6.97;5.33;;;;;;;-0.01;56.25;99042.63;4944725;28;20238;-71
2021/03/07 00:35:58;;;;;;;7.27;4.90;;;;;;;-0.04;56.03;99039.16;4944065;29;20308;-74
2021/03/07 00:38:24;;;;;;;8.70;5.40;;;;;;;-0.08;56.16;99037.38;4944349;28;20279;-73
2021/03/07 00:40:50;;;;;;;7.17;4.63;;;;;;;-0.07;56.61;99034.84;4943647;29;20233;-72
2021/03/07 00:43:16;;;;;;;8.20;5.07;;;;;;;-0.04;56.57;99034.00;4944758;28;20245;-73
2021/03/07 00:45:43;;;;;;;9.63;5.30;;;;;;;-0.05;56.64;99029.75;4943739;29;20249;-73
2021/03/07 00:48:10;;;;;;;7.57;5.27;;;;;;;-0.09;56.60;99027.94;4944594;29;20225;-73
2021/03/07 00:50:36;;;;;;;7.33;5.30;;;;;;;-0.10;56.20;99029.63;4943666;29;20242;-72
2021/03/07 00:53:02;;;;;;;8.50;5.67;;;;;;;-0.14;56.61;99032.13;4944386;28;20332;-72
2021/03/07 00:55:28;;;;;;;9.33;5.57;;;;;;;-0.14;56.95;99021.88;4943927;29;20245;-72
2021/03/07 00:57:54;;;;;;;7.87;5.50;;;;;;;-0.11;56.61;99029.59;4944754;28;20213;-74
2021/03/07 01:00:22;;;;;;;9.30;5.20;;;;;;;-0.17;56.32;99021.81;4944064;29;20221;-73
2021/03/07 01:02:49;;;;;;;7.00;4.97;;;;;;;-0.23;56.95;99018.28;4943791;29;20276;-73
2021/03/07 01:05:15;;;;;;;7.70;5.30;;;;;;;-0.22;56.45;99014.03;4943870;28;20691;-72
2021/03/07 01:07:42;;;;;;;8.10;5.20;;;;;;;-0.21;56.66;99016.63;4944113;29;20852;-73
2021/03/07 01:10:11;;;;;;;10.00;5.40;;;;;;;-0.23;56.54;99010.59;4943658;29;20218;-72
2021/03/07 01:12:38;;;;;;;7.97;4.93;;;;;;;-0.23;56.51;99008.03;4943692;29;20230;-74
2021/03/07 01:15:05;;;;;;;8.90;5.43;;;;;;;-0.22;56.40;99001.19;4943685;28;20303;-72
2021/03/07 01:17:31;;;;;;;7.70;4.67;;;;;;;-0.21;56.49;98998.66;4943206;29;20245;-72
2021/03/07 01:19:58;;;;;;;9.13;5.17;;;;;;;-0.24;56.48;98990.94;4943082;29;20225;-73
2021/03/07 01:22:24;;;;;;;8.53;5.23;;;;;;;-0.24;55.93;98983.25;4943030;29;20244;-73
2021/03/07 01:24:50;;;;;;;8.17;4.43;;;;;;;-0.23;55.87;98987.53;4943550;28;20800;-73
2021/03/07 01:27:16;;;;;;;8.77;5.63;;;;;;;-0.24;56.25;98984.94;4943603;29;20241;-73
2021/03/07 01:29:42;;;;;;;8.97;5.23;;;;;;;-0.28;56.24;98976.31;4944159;29;20232;-72
2021/03/07 01:32:08;;;;;;;7.53;4.90;;;;;;;-0.34;56.62;98968.53;4943236;29;20241;-72
2021/03/07 01:34:34;;;;;;;7.37;5.03;;;;;;;-0.35;56.66;98969.38;4943387;28;20753;-72
2021/03/07 01:37:01;;;;;;;8.73;5.33;;;;;;;-0.36;56.41;98967.63;4943275;29;20252;-74
2021/03/07 01:39:27;;;;;;;6.40;4.43;;;;;;;-0.38;56.78;98964.19;4942987;29;20221;-72
2021/03/07 01:41:53;;;;;;;6.93;4.23;;;;;;;-0.39;56.88;98952.19;4943063;29;20245;-72
2021/03/07 01:44:19;;;;;;;7.73;4.60;;;;;;;-0.39;56.48;98949.63;4943551;28;20245;-72
2021/03/07 01:46:46;;;;;;;8.97;4.60;;;;;;;-0.40;56.55;98950.47;4943005;29;20242;-72
2021/03/07 01:49:12;;;;;;;8.00;4.70;;;;;;;-0.47;56.89;98936.69;4942374;29;20230;-74
2021/03/07 01:51:38;;;;;;;6.30;4.33;;;;;;;-0.50;56.87;98930.63;4942935;28;20857;-72
2021/03/07 01:54:06;;;;;;;7.77;4.20;;;;;;;-0.52;56.67;98924.63;4943515;28;20296;-73
2021/03/07 01:56:32;;;;;;;6.13;4.37;;;;;;;-0.56;57.19;98917.72;4943093;29;20241;-72
2021/03/07 01:59:01;;;;;;;7.73;4.63;;;;;;;-0.60;57.18;98909.97;4942983;28;20243;-72
2021/03/07 02:01:27;;;;;;;6.47;4.53;;;;;;;-0.65;57.47;98898.75;4941804;29;20300;-73
2021/03/07 02:03:54;;;;;;;7.03;4.50;;;;;;;-0.72;57.33;98902.03;4939208;28;20623;-72
2021/03/07 02:06:20;;;;;;;6.47;4.07;;;;;;;-0.79;57.23;98880.59;4943162;28;20252;-72
2021/03/07 02:08:47;;;;;;;9.13;5.17;;;;;;;-0.83;57.71;98883.03;4945070;28;20209;-73
2021/03/07 02:11:14;;;;;;;9.07;4.50;;;;;;;-0.88;57.68;98875.28;4943762;28;20229;-73
2021/03/07 02:13:41;;;;;;;6.37;4.70;;;;;;;-0.89;57.58;98870.13;4941399;28;20627;-73
2021/03/07 02:16:09;;;;;;;6.97;5.10;;;;;;;-0.95;57.45;98867.47;4942042;29;20908;-73
2021/03/07 02:18:37;;;;;;;7.17;4.23;;;;;;;-1.01;58.05;98866.50;4942936;29;20268;-74
2021/03/07 02:21:06;;;;;;;5.67;4.17;;;;;;;-1.03;57.80;98857.94;4943423;28;20238;-72
2021/03/07 02:23:34;;;;;;;5.50;4.20;;;;;;;-1.01;57.88;98855.38;4943087;28;20237;-73
2021/03/07 02:26:03;;;;;;;7.37;5.10;;;;;;;-1.07;57.67;98843.34;4942312;29;20287;-73
2021/03/07 02:28:29;;;;;;;5.57;4.30;;;;;;;-1.06;57.70;98846.78;4943129;29;20335;-73
2021/03/07 02:30:55;;;;;;;6.87;4.83;;;;;;;-1.04;58.03;98851.09;4942496;29;21028;-72
2021/03/07 02:33:24;;;;;;;5.73;4.30;;;;;;;-1.03;57.59;98846.81;4942788;28;20238;-73
2021/03/07 02:35:54;;;;;;;5.20;4.00;;;;;;;-1.04;57.67;98840.84;4943036;29;20244;-73
2021/03/07 02:38:23;;;;;;;6.50;4.63;;;;;;;-1.03;57.23;98842.56;4943405;28;20996;-74
2021/03/07 02:40:50;;;;;;;7.90;4.47;;;;;;;-1.05;57.83;98838.25;4941143;29;20233;-72
2021/03/07 02:43:17;;;;;;;5.37;4.20;;;;;;;-1.03;57.63;98836.56;4941836;28;20214;-74
2021/03/07 02:45:45;;;;;;;7.00;4.60;;;;;;;-1.01;57.67;98835.78;4940485;29;20230;-72
2021/03/07 02:48:13;;;;;;;8.00;5.20;;;;;;;-1.02;57.68;98834.03;4941067;29;20217;-73
2021/03/07 02:50:40;;;;;;;7.83;5.33;;;;;;;-1.07;57.71;98835.66;4940941;29;20242;-74
2021/03/07 02:53:08;;;;;;;8.23;4.60;;;;;;;-1.12;57.76;98832.16;4942609;28;21182;-73
2021/03/07 02:55:36;;;;;;;9.03;5.30;;;;;;;-1.14;57.55;98828.69;4942334;29;20324;-73
2021/03/07 02:58:04;;;;;;;7.40;5.17;;;;;;;-1.17;57.64;98829.50;4943487;29;20222;-73
2021/03/07 03:00:31;;;;;;;7.87;5.13;;;;;;;-1.22;57.79;98825.13;4941684;29;20296;-73
2021/03/07 03:03:01;;;;;;;8.63;5.47;;;;;;;-1.28;57.83;98825.03;4943888;28;20695;-72
2021/03/07 03:05:27;;;;;;;7.53;5.20;;;;;;;-1.30;57.85;98829.25;4944698;29;20240;-73
2021/03/07 03:07:53;;;;;;;7.57;4.70;;;;;;;-1.36;58.11;98830.84;4946444;29;20233;-73
2021/03/07 03:10:20;;;;;;;7.60;4.90;;;;;;;-1.38;58.72;98826.50;4945579;29;20674;-73
2021/03/07 03:12:46;;;;;;;6.00;4.23;;;;;;;-1.40;58.28;98820.50;4947580;28;20225;-73
2021/03/07 03:15:13;;;;;;;7.03;4.13;;;;;;;-1.46;58.19;98811.00;4944103;28;20249;-73
2021/03/07 03:17:41;;;;;;;8.13;5.00;;;;;;;-1.49;58.56;98804.97;4944873;29;20714;-73
2021/03/07 03:20:11;;;;;;;7.40;5.07;;;;;;;-1.52;58.60;98810.03;4944739;29;20221;-72
2021/03/07 03:22:37;;;;;;;8.03;4.53;;;;;;;-1.59;58.57;98809.03;4945858;29;20225;-73
2021/03/07 03:25:05;;;;;;;6.50;3.90;;;;;;;-1.63;58.90;98799.59;4945888;28;20267;-72
2021/03/07 03:27:32;;;;;;;7.57;4.27;;;;;;;-1.63;59.13;98794.47;4945720;29;20241;-74
2021/03/07 03:29:59;;;;;;;6.53;4.43;;;;;;;-1.63;59.03;98799.59;4945348;29;20224;-73
2021/03/07 03:32:29;;;;;;;7.57;4.90;;;;;;;-1.63;58.62;98794.47;4945109;29;20241;-73
2021/03/07 03:34:57;;;;;;;8.00;4.80;;;;;;;-1.66;58.59;98791.84;4945403;28;20368;-73
2021/03/07 03:37:23;;;;;;;6.43;4.23;;;;;;;-1.65;58.38;98788.47;4944607;29;20242;-73
2021/03/07 03:39:50;;;;;;;6.33;4.30;;;;;;;-1.68;58.87;98789.25;4946070;29;20218;-73
2021/03/07 03:42:16;;;;;;;7.67;4.80;;;;;;;-1.70;59.25;98788.34;4945407;29;20770;-72
2021/03/07 03:44:42;;;;;;;7.83;4.90;;;;;;;-1.71;58.69;98785.75;4945400;28;20264;-73
2021/03/07 03:47:11;;;;;;;6.80;4.27;;;;;;;-1.72;58.86;98794.28;4944838;29;20615;-73
2021/03/07 03:49:44;;;;;;;5.97;4.13;;;;;;;-1.77;58.76;98794.19;4945423;29;20257;-73
2021/03/07 03:52:11;;;;;;;7.83;4.83;;;;;;;-1.78;59.19;98788.19;4944820;29;20237;-74
2021/03/07 03:54:44;;;;;;;8.70;4.27;;;;;;;-1.84;58.91;98798.31;4945537;28;20311;-72
2021/03/07 03:57:11;;;;;;;8.27;4.80;;;;;;;-1.87;59.23;98798.25;4944651;29;20234;-74
2021/03/07 03:59:38;;;;;;;5.80;4.00;;;;;;;-1.89;59.17;98797.34;4945369;29;20230;-72
2021/03/07 04:02:05;;;;;;;6.97;4.60;;;;;;;-1.97;58.99;98801.41;4944103;29;20237;-74
2021/03/07 04:04:32;;;;;;;6.60;4.90;;;;;;;-2.13;59.36;98803.66;4945309;28;20241;-74
2021/03/07 04:06:59;;;;;;;7.10;4.50;;;;;;;-2.21;59.52;98805.16;4943937;29;20295;-73
2021/03/07 04:09:26;;;;;;;6.23;4.03;;;;;;;-2.23;59.11;98808.50;4945265;29;20251;-73
2021/03/07 04:11:53;;;;;;;7.63;4.50;;;;;;;-2.25;60.23;98807.63;4945453;28;20303;-72
2021/03/07 04:14:19;;;;;;;6.40;4.80;;;;;;;-2.31;59.67;98803.22;4944261;28;20237;-73
2021/03/07 04:16:47;;;;;;;8.17;4.13;;;;;;;-2.37;60.00;98808.19;4944859;29;20803;-72
2021/03/07 04:19:13;;;;;;;5.03;3.60;;;;;;;-2.40;60.01;98810.69;4944089;29;20580;-73
2021/03/07 04:21:40;;;;;;;6.80;4.10;;;;;;;-2.43;59.49;98805.50;4942910;29;20730;-72
2021/03/07 04:24:07;;;;;;;6.27;3.80;;;;;;;-2.45;59.76;98808.00;4944789;28;20238;-72
2021/03/07 04:26:35;;;;;;;6.60;3.90;;;;;;;-2.48;59.76;98812.16;4944048;29;20246;-72
2021/03/07 04:29:01;;;;;;;6.17;3.90;;;;;;;-2.50;60.66;98809.56;4944667;29;20753;-73
2021/03/07 04:31:27;;;;;;;7.67;4.27;;;;;;;-2.53;60.47;98814.63;4943831;29;20834;-74
2021/03/07 04:33:53;;;;;;;8.77;4.20;;;;;;;-2.54;60.33;98803.56;4944833;28;20242;-72
2021/03/07 04:36:19;;;;;;;6.80;4.10;;;;;;;-2.52;60.52;98808.69;4944038;29;20245;-71
2021/03/07 04:38:45;;;;;;;7.17;3.87;;;;;;;-2.49;60.15;98807.91;4945233;29;20232;-72
2021/03/07 04:41:12;;;;;;;5.70;4.30;;;;;;;-2.52;60.60;98812.13;4942585;29;20237;-72
2021/03/07 04:43:49;;;;;;;7.23;4.47;;;;;;;-2.52;60.53;98812.13;4944230;28;20381;-72
2021/03/07 04:46:18;;;;;;;5.17;3.80;;;;;;;-2.52;59.68;98812.13;4942871;29;20248;-72
2021/03/07 04:48:44;;;;;;;7.70;4.20;;;;;;;-2.50;59.85;98809.56;4944964;29;20225;-72
2021/03/07 04:51:10;;;;;;;7.03;4.33;;;;;;;-2.49;60.37;98807.91;4943999;29;20244;-73
2021/03/07 04:53:36;;;;;;;6.50;3.90;;;;;;;-2.51;60.66;98807.88;4944167;28;20249;-72
2021/03/07 04:56:02;;;;;;;6.27;4.27;;;;;;;-2.50;59.50;98803.63;4943453;29;20249;-72
2021/03/07 04:58:28;;;;;;;6.43;3.73;;;;;;;-2.56;60.09;98810.28;4943697;29;20225;-73
2021/03/07 05:00:55;;;;;;;5.97;3.80;;;;;;;-2.65;60.38;98804.97;4943700;29;20240;-72
2021/03/07 05:03:21;;;;;;;7.10;4.23;;;;;;;-2.69;60.30;98808.28;4943269;28;20777;-72
2021/03/07 05:05:47;;;;;;;6.83;4.03;;;;;;;-2.77;61.01;98804.69;4943524;29;20265;-72
2021/03/07 05:08:13;;;;;;;6.30;4.27;;;;;;;-2.80;61.45;98802.03;4944152;29;20847;-72
2021/03/07 05:10:39;;;;;;;5.80;4.10;;;;;;;-2.84;61.57;98802.81;4941907;29;20349;-73
2021/03/07 05:13:06;;;;;;;7.77;4.27;;;;;;;-2.84;61.36;98798.53;4945056;28;20708;-74
2021/03/07 05:15:32;;;;;;;7.13;4.00;;;;;;;-2.84;60.68;98797.69;4943193;29;20261;-72
2021/03/07 05:17:59;;;;;;;5.80;3.47;;;;;;;-2.91;61.75;98802.63;4943251;29;20304;-73
2021/03/07 05:20:25;;;;;;;6.63;4.47;;;;;;;-2.95;61.82;98790.63;4943426;29;20249;-72
2021/03/07 05:22:51;;;;;;;5.93;3.97;;;;;;;-2.95;61.93;98794.88;4944150;29;20233;-72
2021/03/07 05:25:17;;;;;;;6.80;3.87;;;;;;;-2.96;62.34;98793.13;4942851;28;20248;-72
2021/03/07 05:27:43;;;;;;;6.80;4.03;;;;;;;-3.01;61.63;98794.72;4944088;29;20225;-72
2021/03/07 05:30:11;;;;;;;7.63;3.60;;;;;;;-3.00;62.05;98789.63;4943331;29;20220;-72
2021/03/07 05:32:37;;;;;;;8.43;4.50;;;;;;;-3.05;62.87;98783.56;4943852;29;20333;-71
2021/03/07 05:35:04;;;;;;;7.50;4.33;;;;;;;-3.00;62.31;98784.53;4943893;28;20731;-72
2021/03/07 05:37:30;;;;;;;8.07;4.60;;;;;;;-2.98;62.00;98767.59;4942772;29;20292;-73
2021/03/07 05:39:56;;;;;;;8.80;4.50;;;;;;;-2.95;61.83;98765.09;4944268;29;20317;-72
2021/03/07 05:42:23;;;;;;;7.57;4.97;;;;;;;-2.93;62.11;98757.47;4942370;29;20245;-72
2021/03/07 05:44:49;;;;;;;7.67;5.07;;;;;;;-2.95;61.60;98749.78;4943327;28;20730;-72
2021/03/07 05:47:16;;;;;;;6.97;4.30;;;;;;;-2.96;62.76;98753.16;4943038;29;20727;-72
2021/03/07 05:49:42;;;;;;;8.87;4.97;;;;;;;-3.03;63.13;98750.41;4944040;29;20213;-72
2021/03/07 05:52:10;;;;;;;8.50;4.33;;;;;;;-3.13;62.95;98747.63;4942785;29;20245;-72
2021/03/07 05:54:36;;;;;;;7.10;4.17;;;;;;;-3.20;62.30;98744.88;4943235;28;20247;-72
2021/03/07 05:57:02;;;;;;;7.53;4.67;;;;;;;-3.16;62.46;98757.75;4942877;29;20245;-72
2021/03/07 05:59:29;;;;;;;6.93;4.60;;;;;;;-3.15;62.56;98750.97;4943755;29;20226;-72
2021/03/07 06:01:55;;;;;;;6.73;4.50;;;;;;;-3.11;62.30;98757.88;4942969;29;20248;-72
2021/03/07 06:04:21;;;;;;;8.47;5.00;;;;;;;-3.11;62.90;98753.66;4943433;28;20245;-73
2021/03/07 06:06:47;;;;;;;6.80;3.97;;;;;;;-3.11;62.18;98752.75;4942821;29;21148;-72
2021/03/07 06:09:19;;;;;;;6.73;4.33;;;;;;;-3.18;62.69;98750.88;4943708;29;20219;-72
2021/03/07 06:11:46;;;;;;;8.60;4.00;;;;;;;-3.18;63.14;98756.88;4943830;28;20239;-73
2021/03/07 06:14:22;;;;;;;10.07;3.90;;;;;;;-3.20;62.84;98755.94;4941631;28;20249;-72
2021/03/07 06:17:03;;;;;;;8.30;4.30;;;;;;;-3.21;64.08;98756.78;4942900;29;20241;-72
2021/03/07 06:19:29;;;;;;;7.03;4.43;;;;;;;-3.18;63.72;98761.06;4942836;29;20221;-72
2021/03/07 06:21:56;;;;;;;6.87;3.97;;;;;;;-3.13;62.79;98754.41;4942729;29;20240;-73
2021/03/07 06:24:36;;;;;;;5.97;4.23;;;;;;;-3.11;63.95;98762.97;4943419;28;20292;-72
2021/03/07 06:27:04;;;;;;;7.63;4.07;;;;;;;-3.16;63.99;98764.53;4942655;29;20244;-73
2021/03/07 06:29:30;;;;;;;7.27;4.63;;;;;;;-3.15;63.79;98761.16;4937277;29;20750;-72
2021/03/07 06:31:56;;;;;;;5.87;4.27;;;;;;;-3.10;63.54;98765.56;4939224;29;20230;-72
2021/03/07 06:34:22;;;;;;;7.70;4.67;;;;;;;-3.00;63.62;98765.78;4942005;28;20253;-72
2021/03/07 06:36:48;;;;;;;6.90;4.37;;;;;;;-2.91;63.19;98759.22;4941919;28;20241;-72
2021/03/07 06:39:15;;;;;;;9.10;5.13;;;;;;;-2.83;63.28;98763.66;4946866;29;20218;-72
2021/03/07 06:41:42;;;;;;;7.27;4.70;;;;;;;-2.86;63.96;98753.38;4945906;29;20793;-73
2021/03/07 06:44:10;;;;;;;7.43;5.37;;;;;;;-2.83;63.31;98763.66;4945966;28;20241;-73
2021/03/07 06:46:38;;;;;;;9.90;5.93;;;;;;;-2.82;63.71;98755.19;4945340;29;20786;-71
2021/03/07 06:49:04;;;;;;;10.07;6.20;;;;;;;-2.76;63.16;98762.97;4946419;29;20216;-74
2021/03/07 06:51:32;;;;;;;15.60;7.63;;;;;;;-2.69;63.41;98759.75;4945986;29;20879;-73
2021/03/07 06:53:59;;;;;;;13.93;7.70;;;;;;;-2.65;62.72;98764.09;4946137;28;20241;-74
2021/03/07 06:56:45;;;;;;;13.93;7.10;;;;;;;-2.65;62.99;98769.22;4945387;29;20246;-73
2021/03/07 06:59:14;;;;;;;15.37;6.30;;;;;;;-2.62;63.37;98764.19;4946743;29;20235;-72
2021/03/07 07:01:40;;;;;;;15.83;6.70;;;;;;;-2.57;62.67;98757.50;4945533;29;20238;-74
2021/03/07 07:04:06;;;;;;;11.97;8.00;;;;;;;-2.50;62.53;98763.59;4946296;28;20241;-72
2021/03/07 07:06:33;;;;;;;11.07;7.13;;;;;;;-2.42;62.32;98762.09;4945780;29;20245;-72
2021/03/07 07:09:00;;;;;;;10.63;6.13;;;;;;;-2.39;62.42;98758.72;4945374;29;20248;-73
2021/03/07 07:11:26;;;;;;;10.37;6.00;;;;;;;-2.34;62.48;98757.16;4945163;28;20279;-73
2021/03/07 07:13:53;;;;;;;12.60;6.40;;;;;;;-2.28;62.98;98746.19;4945024;28;20242;-72
2021/03/07 07:16:19;;;;;;;11.67;6.47;;;;;;;-2.22;62.38;98744.66;4945481;29;20241;-72
2021/03/07 07:18:49;;;;;;;8.73;5.40;;;;;;;-2.17;62.56;98748.19;4946664;29;20227;-72
2021/03/07 07:21:17;;;;;;;12.57;5.93;;;;;;;-2.11;62.41;98744.00;4944476;29;20233;-73
2021/03/07 07:23:43;;;;;;;11.77;5.70;;;;;;;-2.03;63.23;98743.34;4945587;28;20237;-72
2021/03/07 07:26:09;;;;;;;15.93;6.63;;;;;;;-1.96;62.46;98746.91;4942079;29;20234;-74
2021/03/07 07:28:36;;;;;;;13.30;5.93;;;;;;;-1.96;63.06;98741.78;4939931;28;20636;-73
2021/03/07 07:31:08;;;;;;;14.47;6.73;;;;;;;-1.87;63.03;98744.53;4942661;29;20226;-73
2021/03/07 07:33:41;;;;;;;15.83;6.27;;;;;;;-1.81;63.49;98743.81;4944763;28;20292;-74
2021/03/07 07:36:10;;;;;;;17.10;6.23;;;;;;;-1.70;62.54;98744.03;4944614;29;20241;-73
2021/03/07 07:38:38;;;;;;;20.40;7.10;;;;;;;-1.64;62.51;98744.97;4944898;29;20221;-73
2021/03/07 07:41:31;;;;;;;17.27;6.63;;;;;;;-1.65;64.67;98737.31;4945154;29;20241;-74
2021/03/07 07:43:58;;;;;;;11.37;5.80;;;;;;;-1.56;63.00;98733.22;4941289;28;20237;-74
2021/03/07 07:46:25;;;;;;;12.93;5.83;;;;;;;-1.51;63.56;98728.16;4943143;29;20237;-74
2021/03/07 07:48:51;;;;;;;13.73;5.90;;;;;;;-1.42;63.64;98738.56;4943756;28;20222;-72
2021/03/07 07:51:36;;;;;;;12.57;5.27;;;;;;;-1.35;63.76;98737.00;4945271;29;20249;-72
2021/03/07 07:54:03;;;;;;;19.60;6.40;;;;;;;-1.26;63.48;98736.31;4944965;28;20292;-72
2021/03/07 07:56:35;;;;;;;13.83;6.43;;;;;;;-1.18;63.40;98739.88;4944526;29;20241;-72
2021/03/07 07:59:01;;;;;;;14.40;6.07;;;;;;;-1.00;62.76;98732.50;4944663;29;20868;-72
2021/03/07 08:01:52;;;;;;;19.37;6.47;;;;;;;-0.63;62.27;98735.66;4944087;29;20805;-73
2021/03/07 08:04:38;;;;;;;16.57;5.97;;;;;;;-0.46;62.34;98729.91;4937697;28;20248;-72
2021/03/07 08:07:06;;;;;;;20.87;6.90;;;;;;;-0.30;62.04;98729.31;4944467;29;20249;-72
2021/03/07 08:09:37;;;;;;;15.63;6.77;;;;;;;-0.18;61.50;98732.88;4945257;29;20225;-84
2021/03/07 08:12:41;;;;;;;17.47;6.87;;;;;;;-0.05;61.29;98735.63;4943825;28;20233;-72
2021/03/07 08:15:45;;;;;;;13.63;5.47;;;;;;;-0.01;61.80;98729.69;4943674;28;20248;-72
2021/03/07 08:18:15;;;;;;;17.00;5.90;;;;;;;0.09;60.57;98725.56;4929299;29;21310;-73
2021/03/07 08:20:59;;;;;;;16.10;6.20;;;;;;;0.16;60.55;98729.91;4942875;29;20722;-72
2021/03/07 08:23:25;;;;;;;19.70;6.70;;;;;;;0.23;59.83;98724.88;4933313;28;20812;-72
2021/03/07 08:26:00;;;;;;;16.87;5.63;;;;;;;0.32;59.04;98730.09;4944396;29;20234;-73
2021/03/07 08:28:41;;;;;;;20.30;6.27;;;;;;;0.42;59.15;98720.78;4944397;29;20229;-73
2021/03/07 08:31:09;;;;;;;23.20;7.07;;;;;;;0.55;59.04;98713.25;4939676;28;20291;-72
2021/03/07 08:33:37;;;;;;;21.53;6.50;;;;;;;0.68;58.82;98713.38;4939769;28;20230;-72
2021/03/07 08:36:11;;;;;;;23.63;6.47;;;;;;;0.77;58.83;98703.19;4939748;29;20242;-72
2021/03/07 08:38:37;;;;;;;28.43;8.00;;;;;;;0.88;58.62;98701.59;4941867;29;20512;-73
2021/03/07 08:41:04;;;;;;;36.23;9.67;;;;;;;1.02;57.67;98699.13;4940229;29;20241;-72
2021/03/07 08:43:51;;;;;;;31.50;8.93;;;;;;;1.24;57.34;98700.16;4940220;28;20295;-72
2021/03/07 08:46:19;;;;;;;23.97;6.70;;;;;;;1.39;57.29;98694.28;4939928;29;20351;-72
2021/03/07 08:48:47;;;;;;;35.23;8.77;;;;;;;1.60;57.01;98698.72;4939410;29;20214;-72
2021/03/07 08:51:15;;;;;;;31.90;8.23;;;;;;;1.80;56.35;98695.38;4938701;29;20237;-72
2021/03/07 08:53:42;;;;;;;34.83;8.90;;;;;;;2.00;55.90;98682.59;4939940;28;20269;-72
2021/03/07 08:56:09;;;;;;;27.80;6.47;;;;;;;2.10;55.54;98677.50;4940480;29;20249;-72
2021/03/07 08:58:37;;;;;;;24.90;6.57;;;;;;;2.34;55.02;98688.75;4941396;29;20226;-72
2021/03/07 09:01:04;;;;;;;24.57;6.83;;;;;;;2.55;54.34;98681.94;4939557;28;20252;-73
2021/03/07 09:03:30;;;;;;;29.57;7.50;;;;;;;2.68;53.80;98673.34;4940867;28;20234;-73
2021/03/07 09:05:57;;;;;;;27.33;7.00;;;;;;;2.91;53.33;98675.13;4940415;29;20252;-72
2021/03/07 09:08:24;;;;;;;31.13;8.10;;;;;;;3.06;52.44;98669.97;4940573;29;20217;-74
2021/03/07 09:10:53;;;;;;;33.10;7.95;;;;;;;3.24;51.82;98667.38;4940892;28;20240;-72
2021/03/07 09:13:21;;;;;;;30.92;7.65;;;;;;;3.41;51.30;98657.03;4940856;28;20379;-72
2021/03/07 09:15:52;;;;;;;29.77;7.93;;;;;;;3.51;49.08;98657.00;4940400;29;20251;-74
2021/03/07 09:18:19;;;;;;;31.23;7.57;;;;;;;3.70;49.55;98657.84;4940722;29;20249;-74
2021/03/07 09:20:48;;;;;;;24.70;6.63;;;;;;;3.91;49.13;98654.31;4940268;29;20237;-74
2021/03/07 09:23:30;;;;;;;25.70;6.73;;;;;;;4.20;48.67;98654.19;4939793;28;20225;-72
2021/03/07 09:25:57;;;;;;;32.03;7.82;;;;;;;4.33;48.21;98640.34;4940327;29;20319;-73
2021/03/07 09:28:40;;;;;;;46.80;9.70;;;;;;;4.53;48.60;98639.38;4940074;29;20232;-74
2021/03/07 09:31:09;;;;;;;40.15;9.00;;;;;;;4.66;47.81;98633.25;4939641;29;20251;-73
2021/03/07 09:33:35;;;;;;;39.20;9.30;;;;;;;4.90;47.62;98631.34;4940884;28;20241;-72
2021/03/07 09:36:07;;;;;;;38.03;9.13;;;;;;;5.04;46.74;98626.94;4940844;29;20240;-72
2021/03/07 09:38:41;;;;;;;29.58;7.82;;;;;;;5.30;46.84;98628.41;4941585;29;20303;-75
2021/03/07 09:41:08;;;;;;;21.20;6.22;;;;;;;5.41;46.39;98624.00;4939533;29;20758;-73
2021/03/07 09:43:34;;;;;;;27.90;7.43;;;;;;;5.44;45.66;98623.97;4939515;28;20319;-73
2021/03/07 09:46:01;;;;;;;32.47;8.60;;;;;;;5.44;45.66;98618.78;4939300;29;20240;-74
2021/03/07 09:48:29;;;;;;;30.85;7.75;;;;;;;5.50;44.32;98615.28;4940409;29;20641;-73
2021/03/07 09:50:56;;;;;;;44.45;9.80;;;;;;;5.77;44.78;98616.69;4939667;29;20241;-73
2021/03/07 09:53:23;;;;;;;38.05;8.60;;;;;;;6.01;44.59;98606.94;4939547;28;20695;-72
2021/03/07 09:55:50;;;;;;;27.70;7.03;;;;;;;6.01;43.56;98604.34;4940117;29;20241;-72
2021/03/07 09:58:16;;;;;;;36.67;8.05;;;;;;;6.04;43.13;98601.72;4940545;29;20265;-72
2021/03/07 10:00:47;;;;;;;34.75;8.00;;;;;;;5.97;42.29;98598.34;4939319;29;20839;-72
2021/03/07 10:03:21;;;;;;;28.30;7.18;;;;;;;6.10;42.49;98599.94;4938769;28;20940;-73
2021/03/07 10:06:03;;;;;;;26.77;6.35;;;;;;;6.47;42.47;98598.53;4939212;29;20240;-73
2021/03/07 10:08:31;;;;;;;34.40;7.72;;;;;;;6.57;42.41;98600.97;4938788;29;20205;-72
2021/03/07 10:11:11;;;;;;;28.58;6.85;;;;;;;6.70;42.06;98590.41;4939764;28;20295;-74
2021/03/07 10:13:38;;;;;;;38.20;8.25;;;;;;;6.84;42.18;98582.41;4943804;28;20240;-74
2021/03/07 10:16:05;;;;;;;34.97;8.13;;;;;;;6.80;41.13;98585.91;4943390;29;20244;-73
2021/03/07 10:18:31;;;;;;;37.92;8.38;;;;;;;6.72;40.75;98581.72;4943514;29;20741;-73
2021/03/07 10:20:58;;;;;;;41.58;8.90;;;;;;;7.03;40.77;98575.16;4943052;29;20252;-73
2021/03/07 10:23:26;;;;;;;50.03;10.10;;;;;;;7.36;40.62;98565.91;4941885;29;20213;-73
2021/03/07 10:25:53;;;;;;;24.02;6.43;;;;;;;7.60;39.53;98564.56;4943427;29;20245;-72
2021/03/07 10:28:24;;;;;;;30.88;5.65;;;;;;;7.45;39.68;98560.53;4943826;29;20245;-74
2021/03/07 10:30:51;;;;;;;23.25;4.75;;;;;;;7.22;39.60;98557.53;4943372;29;20243;-73
2021/03/07 10:33:19;;;;;;;33.55;7.07;;;;;;;7.20;39.35;98559.28;4943820;28;20264;-73
2021/03/07 10:35:59;;;;;;;38.47;8.15;;;;;;;7.35;39.02;98548.63;4943077;29;20249;-73
2021/03/07 10:38:25;;;;;;;36.17;7.53;;;;;;;7.72;40.21;98553.94;4943293;29;20868;-72
2021/03/07 10:40:52;;;;;;;25.13;5.82;;;;;;;8.02;39.58;98543.78;4943377;29;20241;-73
2021/03/07 10:43:18;;;;;;;21.02;5.25;;;;;;;8.19;38.04;98546.00;4943481;28;20222;-73
2021/03/07 10:45:45;;;;;;;22.27;5.50;;;;;;;8.43;38.67;98538.56;4942840;29;20234;-74
2021/03/07 10:48:12;;;;;;;4.63;2.90;;;;;;;8.62;37.34;98536.38;4943193;29;20221;-73
2021/03/07 10:50:45;;;;;;;2.80;2.50;;;;;;;8.58;37.23;98533.00;4942601;29;20808;-73
2021/03/07 10:53:11;;;;;;;3.55;2.35;;;;;;;8.86;38.11;98530.56;4942931;28;20305;-72
2021/03/07 10:55:37;;;;;;;3.22;2.40;;;;;;;9.13;37.53;98528.13;4942728;29;20241;-73
2021/03/07 10:58:04;;;;;;;3.17;2.40;;;;;;;9.39;36.71;98517.03;4943485;29;20241;-74
2021/03/07 11:00:31;;;;;;;3.03;2.40;;;;;;;9.53;35.68;98520.97;4942499;29;20531;-72
2021/03/07 11:02:58;;;;;;;2.58;1.70;;;;;;;9.59;34.63;98510.38;4942870;29;20275;-73
2021/03/07 11:05:24;;;;;;;3.33;2.30;;;;;;;9.63;34.85;98512.88;4941590;28;20690;-72
2021/03/07 11:07:51;;;;;;;3.05;1.92;;;;;;;9.72;33.83;98510.88;4943343;29;20221;-73
2021/03/07 11:10:18;;;;;;;2.80;2.40;;;;;;;9.98;34.01;98507.47;4942563;29;20880;-72
2021/03/07 11:12:44;;;;;;;3.15;2.00;;;;;;;9.86;33.11;98507.88;4943283;28;20546;-72
2021/03/07 11:15:12;;;;;;;3.88;2.20;;;;;;;10.13;33.61;98501.81;4941911;28;20244;-73
2021/03/07 11:17:38;;;;;;;3.20;1.98;;;;;;;10.33;33.39;98500.34;4942987;29;20241;-73
2021/03/07 11:20:09;;;;;;;2.10;1.42;;;;;;;9.86;30.22;98497.44;4942390;29;20222;-74
2021/03/07 11:22:35;;;;;;;3.42;2.10;;;;;;;9.88;30.84;98488.69;4942983;28;20214;-73
2021/03/07 11:25:01;;;;;;;2.42;1.92;;;;;;;10.00;31.64;98482.25;4942549;28;20233;-73
2021/03/07 11:27:27;;;;;;;1.98;1.75;;;;;;;10.21;31.23;98476.34;4942339;29;20252;-74
2021/03/07 11:29:53;;;;;;;2.90;1.85;;;;;;;10.49;31.95;98482.47;4941804;29;20300;-73
2021/03/07 11:32:20;;;;;;;4.13;1.90;;;;;;;10.79;31.34;98464.94;4942275;29;20271;-73
2021/03/07 11:34:46;;;;;;;3.33;2.13;;;;;;;11.04;30.25;98462.31;4942912;28;20241;-73
2021/03/07 11:37:13;;;;;;;2.40;2.00;;;;;;;11.16;30.22;98455.81;4941925;29;20245;-73
2021/03/07 11:39:39;;;;;;;2.50;2.10;;;;;;;11.44;30.07;98452.19;4942815;29;20232;-74